sensor_id;sensor_type;location;lat;lon;timestamp;P1;durP1;ratioP1;P2;durP2;ratioP2
58310;SDS011;45001;52.218;5.154;2022-11-11T00:00:17;7.13;;;2.55;;
58310;SDS011;45001;52.218;5.154;2022-11-11T00:02:43;4.72;;;2.60;;
58310;SDS011;45001;52.218;5.154;2022-11-11T00:05:08;6.15;;;2.80;;
58310;SDS011;45001;52.218;5.154;2022-11-11T00:07:33;6.18;;;2.70;;
58310;SDS011;45001;52.218;5.154;2022-11-11T00:09:59;4.80;;;2.80;;
58310;SDS011;45001;52.218;5.154;2022-11-11T00:12:24;4.00;;;2.47;;
58310;SDS011;45001;52.218;5.154;2022-11-11T00:14:49;5.82;;;2.45;;
58310;SDS011;45001;52.218;5.154;2022-11-11T00:17:14;6.45;;;3.03;;
58310;SDS011;45001;52.218;5.154;2022-11-11T00:19:58;6.47;;;2.80;;
58310;SDS011;45001;52.218;5.154;2022-11-11T00:22:42;5.25;;;2.38;;
58310;SDS011;45001;52.218;5.154;2022-11-11T00:25:26;6.15;;;2.80;;
58310;SDS011;45001;52.218;5.154;2022-11-11T00:27:52;4.82;;;2.88;;
58310;SDS011;45001;52.218;5.154;2022-11-11T00:30:17;4.03;;;2.38;;
58310;SDS011;45001;52.218;5.154;2022-11-11T00:32:43;6.13;;;2.95;;
58310;SDS011;45001;52.218;5.154;2022-11-11T00:35:08;4.47;;;2.50;;
58310;SDS011;45001;52.218;5.154;2022-11-11T00:37:52;6.22;;;3.03;;
58310;SDS011;45001;52.218;5.154;2022-11-11T00:40:18;4.82;;;2.90;;
58310;SDS011;45001;52.218;5.154;2022-11-11T00:42:43;5.25;;;2.53;;
58310;SDS011;45001;52.218;5.154;2022-11-11T00:45:09;5.55;;;2.78;;
58310;SDS011;45001;52.218;5.154;2022-11-11T00:47:35;6.50;;;3.42;;
58310;SDS011;45001;52.218;5.154;2022-11-11T00:50:20;5.63;;;2.58;;
58310;SDS011;45001;52.218;5.154;2022-11-11T00:53:10;4.97;;;2.95;;
58310;SDS011;45001;52.218;5.154;2022-11-11T00:55:40;6.75;;;2.80;;
58310;SDS011;45001;52.218;5.154;2022-11-11T00:58:05;4.97;;;3.05;;
58310;SDS011;45001;52.218;5.154;2022-11-11T01:00:31;6.32;;;3.20;;
58310;SDS011;45001;52.218;5.154;2022-11-11T01:02:57;5.20;;;3.10;;
58310;SDS011;45001;52.218;5.154;2022-11-11T01:05:23;6.97;;;2.63;;
58310;SDS011;45001;52.218;5.154;2022-11-11T01:07:49;3.47;;;2.65;;
58310;SDS011;45001;52.218;5.154;2022-11-11T01:10:15;6.20;;;3.38;;
58310;SDS011;45001;52.218;5.154;2022-11-11T01:13:00;6.13;;;3.70;;
58310;SDS011;45001;52.218;5.154;2022-11-11T01:15:35;6.63;;;3.55;;
58310;SDS011;45001;52.218;5.154;2022-11-11T01:18:01;4.18;;;2.60;;
58310;SDS011;45001;52.218;5.154;2022-11-11T01:20:27;6.55;;;2.70;;
58310;SDS011;45001;52.218;5.154;2022-11-11T01:22:52;5.65;;;2.83;;
58310;SDS011;45001;52.218;5.154;2022-11-11T01:25:17;6.68;;;3.25;;
58310;SDS011;45001;52.218;5.154;2022-11-11T01:27:42;6.20;;;3.47;;
58310;SDS011;45001;52.218;5.154;2022-11-11T01:30:08;5.45;;;3.42;;
58310;SDS011;45001;52.218;5.154;2022-11-11T01:32:33;6.00;;;3.15;;
58310;SDS011;45001;52.218;5.154;2022-11-11T01:34:59;6.57;;;3.47;;
58310;SDS011;45001;52.218;5.154;2022-11-11T01:37:24;4.53;;;2.63;;
58310;SDS011;45001;52.218;5.154;2022-11-11T01:39:49;6.95;;;4.05;;
58310;SDS011;45001;52.218;5.154;2022-11-11T01:42:14;5.88;;;3.42;;
58310;SDS011;45001;52.218;5.154;2022-11-11T01:44:49;4.63;;;2.88;;
58310;SDS011;45001;52.218;5.154;2022-11-11T01:47:14;4.13;;;3.00;;
58310;SDS011;45001;52.218;5.154;2022-11-11T01:49:48;7.28;;;4.60;;
58310;SDS011;45001;52.218;5.154;2022-11-11T01:52:21;4.90;;;3.30;;
58310;SDS011;45001;52.218;5.154;2022-11-11T02:00:06;6.00;;;3.88;;
58310;SDS011;45001;52.218;5.154;2022-11-11T02:02:44;7.30;;;3.10;;
58310;SDS011;45001;52.218;5.154;2022-11-11T02:05:13;5.90;;;3.70;;
58310;SDS011;45001;52.218;5.154;2022-11-11T02:07:59;4.63;;;2.63;;
58310;SDS011;45001;52.218;5.154;2022-11-11T02:10:29;4.97;;;3.22;;
58310;SDS011;45001;52.218;5.154;2022-11-11T02:12:57;5.60;;;3.13;;
58310;SDS011;45001;52.218;5.154;2022-11-11T02:15:41;5.75;;;3.45;;
58310;SDS011;45001;52.218;5.154;2022-11-11T02:18:07;5.40;;;3.63;;
58310;SDS011;45001;52.218;5.154;2022-11-11T02:20:36;6.38;;;3.50;;
58310;SDS011;45001;52.218;5.154;2022-11-11T02:25:39;6.70;;;3.90;;
58310;SDS011;45001;52.218;5.154;2022-11-11T02:28:09;8.15;;;3.65;;
58310;SDS011;45001;52.218;5.154;2022-11-11T02:30:37;5.35;;;3.38;;
58310;SDS011;45001;52.218;5.154;2022-11-11T02:33:03;7.88;;;2.95;;
58310;SDS011;45001;52.218;5.154;2022-11-11T02:35:29;5.25;;;3.75;;
58310;SDS011;45001;52.218;5.154;2022-11-11T02:37:57;4.60;;;3.15;;
58310;SDS011;45001;52.218;5.154;2022-11-11T02:40:28;4.65;;;3.63;;
58310;SDS011;45001;52.218;5.154;2022-11-11T02:43:00;6.07;;;3.90;;
58310;SDS011;45001;52.218;5.154;2022-11-11T02:45:26;8.30;;;3.53;;
58310;SDS011;45001;52.218;5.154;2022-11-11T02:47:51;5.43;;;3.25;;
58310;SDS011;45001;52.218;5.154;2022-11-11T02:50:16;5.40;;;3.40;;
58310;SDS011;45001;52.218;5.154;2022-11-11T02:52:41;5.22;;;3.20;;
58310;SDS011;45001;52.218;5.154;2022-11-11T02:55:07;5.60;;;4.18;;
58310;SDS011;45001;52.218;5.154;2022-11-11T02:57:33;4.30;;;3.25;;
58310;SDS011;45001;52.218;5.154;2022-11-11T02:59:59;4.95;;;3.17;;
58310;SDS011;45001;52.218;5.154;2022-11-11T03:02:25;3.80;;;3.33;;
58310;SDS011;45001;52.218;5.154;2022-11-11T03:04:54;6.05;;;3.90;;
58310;SDS011;45001;52.218;5.154;2022-11-11T03:07:20;5.15;;;2.92;;
58310;SDS011;45001;52.218;5.154;2022-11-11T03:09:46;5.95;;;4.07;;
58310;SDS011;45001;52.218;5.154;2022-11-11T03:12:12;4.53;;;2.83;;
58310;SDS011;45001;52.218;5.154;2022-11-11T03:14:38;6.10;;;4.28;;
58310;SDS011;45001;52.218;5.154;2022-11-11T03:17:03;5.32;;;3.15;;
58310;SDS011;45001;52.218;5.154;2022-11-11T03:19:48;6.25;;;3.38;;
58310;SDS011;45001;52.218;5.154;2022-11-11T03:22:13;5.53;;;3.63;;
58310;SDS011;45001;52.218;5.154;2022-11-11T03:24:38;6.25;;;3.60;;
58310;SDS011;45001;52.218;5.154;2022-11-11T03:27:22;6.72;;;3.38;;
58310;SDS011;45001;52.218;5.154;2022-11-11T03:29:48;5.30;;;3.30;;
58310;SDS011;45001;52.218;5.154;2022-11-11T03:32:13;5.65;;;3.92;;
58310;SDS011;45001;52.218;5.154;2022-11-11T03:34:38;6.45;;;4.05;;
58310;SDS011;45001;52.218;5.154;2022-11-11T03:37:07;6.32;;;4.05;;
58310;SDS011;45001;52.218;5.154;2022-11-11T03:39:52;5.63;;;3.67;;
58310;SDS011;45001;52.218;5.154;2022-11-11T03:42:18;6.97;;;4.25;;
58310;SDS011;45001;52.218;5.154;2022-11-11T03:44:43;5.43;;;3.70;;
58310;SDS011;45001;52.218;5.154;2022-11-11T03:47:08;4.25;;;3.30;;
58310;SDS011;45001;52.218;5.154;2022-11-11T03:49:34;6.20;;;4.03;;
58310;SDS011;45001;52.218;5.154;2022-11-11T03:51:59;4.65;;;3.33;;
58310;SDS011;45001;52.218;5.154;2022-11-11T03:54:24;5.82;;;3.53;;
58310;SDS011;45001;52.218;5.154;2022-11-11T03:56:50;4.97;;;3.40;;
58310;SDS011;45001;52.218;5.154;2022-11-11T03:59:15;5.25;;;3.25;;
58310;SDS011;45001;52.218;5.154;2022-11-11T04:01:40;4.68;;;4.00;;
58310;SDS011;45001;52.218;5.154;2022-11-11T04:04:24;5.00;;;3.72;;
58310;SDS011;45001;52.218;5.154;2022-11-11T04:07:08;7.25;;;3.55;;
58310;SDS011;45001;52.218;5.154;2022-11-11T04:09:52;5.65;;;3.50;;
58310;SDS011;45001;52.218;5.154;2022-11-11T04:12:36;5.45;;;3.80;;
58310;SDS011;45001;52.218;5.154;2022-11-11T04:15:23;3.67;;;2.72;;
58310;SDS011;45001;52.218;5.154;2022-11-11T04:18:07;4.13;;;3.03;;
58310;SDS011;45001;52.218;5.154;2022-11-11T04:20:32;6.20;;;2.80;;
58310;SDS011;45001;52.218;5.154;2022-11-11T04:23:15;6.05;;;3.00;;
58310;SDS011;45001;52.218;5.154;2022-11-11T04:25:41;5.38;;;3.00;;
58310;SDS011;45001;52.218;5.154;2022-11-11T04:28:17;5.07;;;3.05;;
58310;SDS011;45001;52.218;5.154;2022-11-11T04:31:01;6.38;;;2.97;;
58310;SDS011;45001;52.218;5.154;2022-11-11T04:33:26;4.20;;;3.25;;
58310;SDS011;45001;52.218;5.154;2022-11-11T04:35:51;4.60;;;2.55;;
58310;SDS011;45001;52.218;5.154;2022-11-11T04:38:17;4.00;;;2.72;;
58310;SDS011;45001;52.218;5.154;2022-11-11T04:41:00;4.50;;;2.92;;
58310;SDS011;45001;52.218;5.154;2022-11-11T04:43:29;3.63;;;2.50;;
58310;SDS011;45001;52.218;5.154;2022-11-11T04:45:58;4.53;;;2.97;;
58310;SDS011;45001;52.218;5.154;2022-11-11T04:48:24;4.63;;;2.88;;
58310;SDS011;45001;52.218;5.154;2022-11-11T04:50:50;3.90;;;2.90;;
58310;SDS011;45001;52.218;5.154;2022-11-11T04:53:16;4.80;;;2.83;;
58310;SDS011;45001;52.218;5.154;2022-11-11T04:55:41;4.78;;;2.58;;
58310;SDS011;45001;52.218;5.154;2022-11-11T04:58:28;4.13;;;2.70;;
58310;SDS011;45001;52.218;5.154;2022-11-11T05:00:55;4.80;;;2.65;;
58310;SDS011;45001;52.218;5.154;2022-11-11T05:03:20;5.53;;;2.63;;
58310;SDS011;45001;52.218;5.154;2022-11-11T05:05:49;5.50;;;3.10;;
58310;SDS011;45001;52.218;5.154;2022-11-11T05:08:35;5.32;;;2.40;;
58310;SDS011;45001;52.218;5.154;2022-11-11T05:11:20;4.25;;;2.88;;
58310;SDS011;45001;52.218;5.154;2022-11-11T05:13:47;3.22;;;2.50;;
58310;SDS011;45001;52.218;5.154;2022-11-11T05:16:32;5.20;;;2.35;;
58310;SDS011;45001;52.218;5.154;2022-11-11T05:19:19;4.32;;;2.38;;
58310;SDS011;45001;52.218;5.154;2022-11-11T05:22:11;4.72;;;3.08;;
58310;SDS011;45001;52.218;5.154;2022-11-11T05:24:40;4.38;;;2.75;;
58310;SDS011;45001;52.218;5.154;2022-11-11T05:27:24;4.88;;;2.70;;
58310;SDS011;45001;52.218;5.154;2022-11-11T05:29:50;4.75;;;3.30;;
58310;SDS011;45001;52.218;5.154;2022-11-11T05:32:15;5.03;;;2.40;;
58310;SDS011;45001;52.218;5.154;2022-11-11T05:34:42;3.75;;;3.10;;
58310;SDS011;45001;52.218;5.154;2022-11-11T05:37:07;4.43;;;3.10;;
58310;SDS011;45001;52.218;5.154;2022-11-11T05:39:33;4.68;;;2.60;;
58310;SDS011;45001;52.218;5.154;2022-11-11T05:41:58;3.63;;;2.50;;
58310;SDS011;45001;52.218;5.154;2022-11-11T05:44:23;3.47;;;2.67;;
58310;SDS011;45001;52.218;5.154;2022-11-11T05:46:48;4.05;;;2.92;;
58310;SDS011;45001;52.218;5.154;2022-11-11T05:49:14;4.20;;;2.70;;
58310;SDS011;45001;52.218;5.154;2022-11-11T05:51:39;3.78;;;2.63;;
58310;SDS011;45001;52.218;5.154;2022-11-11T05:54:04;5.05;;;2.85;;
58310;SDS011;45001;52.218;5.154;2022-11-11T05:56:30;4.25;;;2.88;;
58310;SDS011;45001;52.218;5.154;2022-11-11T05:58:55;6.88;;;2.97;;
58310;SDS011;45001;52.218;5.154;2022-11-11T06:01:21;3.90;;;2.92;;
58310;SDS011;45001;52.218;5.154;2022-11-11T06:03:46;4.68;;;2.78;;
58310;SDS011;45001;52.218;5.154;2022-11-11T06:06:11;4.00;;;3.03;;
58310;SDS011;45001;52.218;5.154;2022-11-11T06:08:37;5.30;;;2.63;;
58310;SDS011;45001;52.218;5.154;2022-11-11T06:11:02;4.53;;;3.00;;
58310;SDS011;45001;52.218;5.154;2022-11-11T06:13:28;4.43;;;3.20;;
58310;SDS011;45001;52.218;5.154;2022-11-11T06:15:54;5.45;;;3.10;;
58310;SDS011;45001;52.218;5.154;2022-11-11T06:18:20;7.50;;;2.90;;
58310;SDS011;45001;52.218;5.154;2022-11-11T06:20:51;3.55;;;2.78;;
58310;SDS011;45001;52.218;5.154;2022-11-11T06:23:17;3.60;;;3.05;;
58310;SDS011;45001;52.218;5.154;2022-11-11T06:25:42;3.80;;;2.72;;
58310;SDS011;45001;52.218;5.154;2022-11-11T06:28:25;5.35;;;3.42;;
58310;SDS011;45001;52.218;5.154;2022-11-11T06:30:51;6.25;;;3.08;;
58310;SDS011;45001;52.218;5.154;2022-11-11T06:33:16;4.25;;;3.28;;
58310;SDS011;45001;52.218;5.154;2022-11-11T06:35:42;4.95;;;3.00;;
58310;SDS011;45001;52.218;5.154;2022-11-11T06:38:07;5.90;;;3.47;;
58310;SDS011;45001;52.218;5.154;2022-11-11T06:40:33;6.45;;;3.17;;
58310;SDS011;45001;52.218;5.154;2022-11-11T06:42:58;3.95;;;2.58;;
58310;SDS011;45001;52.218;5.154;2022-11-11T06:45:24;4.43;;;3.40;;
58310;SDS011;45001;52.218;5.154;2022-11-11T06:47:51;5.15;;;3.40;;
58310;SDS011;45001;52.218;5.154;2022-11-11T06:50:17;6.60;;;3.30;;
58310;SDS011;45001;52.218;5.154;2022-11-11T06:52:42;6.13;;;3.60;;
58310;SDS011;45001;52.218;5.154;2022-11-11T06:55:08;5.60;;;3.42;;
58310;SDS011;45001;52.218;5.154;2022-11-11T06:57:33;6.45;;;3.88;;
58310;SDS011;45001;52.218;5.154;2022-11-11T06:59:59;11.55;;;4.38;;
58310;SDS011;45001;52.218;5.154;2022-11-11T07:02:24;8.43;;;4.30;;
58310;SDS011;45001;52.218;5.154;2022-11-11T07:04:49;8.52;;;4.40;;
58310;SDS011;45001;52.218;5.154;2022-11-11T07:07:14;7.85;;;4.95;;
58310;SDS011;45001;52.218;5.154;2022-11-11T07:09:41;8.82;;;4.80;;
58310;SDS011;45001;52.218;5.154;2022-11-11T07:12:06;8.15;;;4.38;;
58310;SDS011;45001;52.218;5.154;2022-11-11T07:14:32;8.77;;;4.95;;
58310;SDS011;45001;52.218;5.154;2022-11-11T07:16:58;8.50;;;4.65;;
58310;SDS011;45001;52.218;5.154;2022-11-11T07:19:23;8.40;;;4.80;;
58310;SDS011;45001;52.218;5.154;2022-11-11T07:21:48;9.15;;;5.10;;
58310;SDS011;45001;52.218;5.154;2022-11-11T07:24:14;8.27;;;4.75;;
58310;SDS011;45001;52.218;5.154;2022-11-11T07:26:39;5.97;;;4.63;;
58310;SDS011;45001;52.218;5.154;2022-11-11T07:29:04;7.97;;;4.97;;
58310;SDS011;45001;52.218;5.154;2022-11-11T07:31:30;9.20;;;5.05;;
58310;SDS011;45001;52.218;5.154;2022-11-11T07:33:55;7.45;;;4.85;;
58310;SDS011;45001;52.218;5.154;2022-11-11T07:36:20;6.78;;;4.70;;
58310;SDS011;45001;52.218;5.154;2022-11-11T07:38:45;8.65;;;4.35;;
58310;SDS011;45001;52.218;5.154;2022-11-11T07:41:11;6.82;;;4.00;;
58310;SDS011;45001;52.218;5.154;2022-11-11T07:43:36;4.72;;;3.75;;
58310;SDS011;45001;52.218;5.154;2022-11-11T07:46:01;5.53;;;4.00;;
58310;SDS011;45001;52.218;5.154;2022-11-11T07:48:27;5.93;;;3.33;;
58310;SDS011;45001;52.218;5.154;2022-11-11T07:50:52;4.85;;;3.53;;
58310;SDS011;45001;52.218;5.154;2022-11-11T07:53:20;6.85;;;3.75;;
58310;SDS011;45001;52.218;5.154;2022-11-11T07:55:46;6.95;;;3.75;;
58310;SDS011;45001;52.218;5.154;2022-11-11T07:58:11;5.70;;;3.50;;
58310;SDS011;45001;52.218;5.154;2022-11-11T08:00:37;5.95;;;4.03;;
58310;SDS011;45001;52.218;5.154;2022-11-11T08:03:02;5.97;;;4.10;;
58310;SDS011;45001;52.218;5.154;2022-11-11T08:05:28;8.35;;;4.22;;
58310;SDS011;45001;52.218;5.154;2022-11-11T08:07:53;7.10;;;4.32;;
58310;SDS011;45001;52.218;5.154;2022-11-11T08:10:19;7.07;;;4.05;;
58310;SDS011;45001;52.218;5.154;2022-11-11T08:12:44;6.05;;;3.80;;
58310;SDS011;45001;52.218;5.154;2022-11-11T08:15:28;5.93;;;3.70;;
58310;SDS011;45001;52.218;5.154;2022-11-11T08:17:53;5.50;;;3.90;;
58310;SDS011;45001;52.218;5.154;2022-11-11T08:20:18;4.93;;;3.70;;
58310;SDS011;45001;52.218;5.154;2022-11-11T08:22:44;5.75;;;4.10;;
58310;SDS011;45001;52.218;5.154;2022-11-11T08:25:10;5.22;;;4.30;;
58310;SDS011;45001;52.218;5.154;2022-11-11T08:27:38;6.28;;;4.20;;
58310;SDS011;45001;52.218;5.154;2022-11-11T08:30:05;6.40;;;3.97;;
58310;SDS011;45001;52.218;5.154;2022-11-11T08:32:31;6.28;;;3.72;;
58310;SDS011;45001;52.218;5.154;2022-11-11T08:34:56;4.53;;;3.50;;
58310;SDS011;45001;52.218;5.154;2022-11-11T08:37:22;5.78;;;3.63;;
58310;SDS011;45001;52.218;5.154;2022-11-11T08:39:47;4.20;;;3.67;;
58310;SDS011;45001;52.218;5.154;2022-11-11T08:42:12;5.22;;;3.67;;
58310;SDS011;45001;52.218;5.154;2022-11-11T08:44:38;5.50;;;4.00;;
58310;SDS011;45001;52.218;5.154;2022-11-11T08:47:03;5.70;;;4.22;;
58310;SDS011;45001;52.218;5.154;2022-11-11T08:49:29;4.68;;;3.10;;
58310;SDS011;45001;52.218;5.154;2022-11-11T08:51:54;4.55;;;3.60;;
58310;SDS011;45001;52.218;5.154;2022-11-11T08:54:19;4.40;;;3.90;;
58310;SDS011;45001;52.218;5.154;2022-11-11T08:56:44;4.00;;;3.50;;
58310;SDS011;45001;52.218;5.154;2022-11-11T08:59:10;4.47;;;3.40;;
58310;SDS011;45001;52.218;5.154;2022-11-11T09:01:35;6.43;;;3.58;;
58310;SDS011;45001;52.218;5.154;2022-11-11T09:04:01;4.20;;;3.25;;
58310;SDS011;45001;52.218;5.154;2022-11-11T09:06:27;5.43;;;3.33;;
58310;SDS011;45001;52.218;5.154;2022-11-11T09:08:53;5.05;;;3.60;;
58310;SDS011;45001;52.218;5.154;2022-11-11T09:11:18;4.57;;;3.60;;
58310;SDS011;45001;52.218;5.154;2022-11-11T09:13:45;7.22;;;3.78;;
58310;SDS011;45001;52.218;5.154;2022-11-11T09:16:11;5.18;;;3.17;;
58310;SDS011;45001;52.218;5.154;2022-11-11T09:18:36;6.57;;;3.70;;
58310;SDS011;45001;52.218;5.154;2022-11-11T09:21:02;5.43;;;3.83;;
58310;SDS011;45001;52.218;5.154;2022-11-11T09:23:28;5.97;;;4.10;;
58310;SDS011;45001;52.218;5.154;2022-11-11T09:25:53;6.75;;;4.13;;
58310;SDS011;45001;52.218;5.154;2022-11-11T09:28:18;9.57;;;3.83;;
58310;SDS011;45001;52.218;5.154;2022-11-11T09:30:44;6.10;;;3.80;;
58310;SDS011;45001;52.218;5.154;2022-11-11T09:33:10;5.40;;;4.00;;
58310;SDS011;45001;52.218;5.154;2022-11-11T09:35:36;6.45;;;4.15;;
58310;SDS011;45001;52.218;5.154;2022-11-11T09:38:02;6.18;;;4.10;;
58310;SDS011;45001;52.218;5.154;2022-11-11T09:40:34;5.25;;;4.32;;
58310;SDS011;45001;52.218;5.154;2022-11-11T09:49:27;5.88;;;4.32;;
58310;SDS011;45001;52.218;5.154;2022-11-11T09:54:25;6.00;;;4.30;;
58310;SDS011;45001;52.218;5.154;2022-11-11T09:56:58;5.30;;;4.30;;
58310;SDS011;45001;52.218;5.154;2022-11-11T09:59:49;7.90;;;4.80;;
58310;SDS011;45001;52.218;5.154;2022-11-11T10:05:23;6.07;;;3.90;;
58310;SDS011;45001;52.218;5.154;2022-11-11T10:07:56;6.85;;;4.50;;
58310;SDS011;45001;52.218;5.154;2022-11-11T10:13:19;5.57;;;4.30;;
58310;SDS011;45001;52.218;5.154;2022-11-11T10:21:14;7.32;;;4.70;;
58310;SDS011;45001;52.218;5.154;2022-11-11T10:23:45;5.68;;;4.45;;
58310;SDS011;45001;52.218;5.154;2022-11-11T10:26:19;7.32;;;5.32;;
58310;SDS011;45001;52.218;5.154;2022-11-11T10:28:51;6.43;;;4.90;;
58310;SDS011;45001;52.218;5.154;2022-11-11T10:31:18;9.23;;;4.45;;
58310;SDS011;45001;52.218;5.154;2022-11-11T10:33:59;6.55;;;4.78;;
58310;SDS011;45001;52.218;5.154;2022-11-11T10:36:29;8.23;;;5.18;;
58310;SDS011;45001;52.218;5.154;2022-11-11T10:38:58;7.68;;;5.65;;
58310;SDS011;45001;52.218;5.154;2022-11-11T10:41:30;8.20;;;5.68;;
58310;SDS011;45001;52.218;5.154;2022-11-11T10:44:01;7.10;;;5.55;;
58310;SDS011;45001;52.218;5.154;2022-11-11T10:46:45;8.02;;;5.50;;
58310;SDS011;45001;52.218;5.154;2022-11-11T10:49:20;6.65;;;5.32;;
58310;SDS011;45001;52.218;5.154;2022-11-11T10:51:49;7.82;;;5.50;;
58310;SDS011;45001;52.218;5.154;2022-11-11T10:54:23;6.78;;;5.07;;
58310;SDS011;45001;52.218;5.154;2022-11-11T10:57:18;9.93;;;5.32;;
58310;SDS011;45001;52.218;5.154;2022-11-11T10:59:50;5.63;;;5.00;;
58310;SDS011;45001;52.218;5.154;2022-11-11T11:02:22;7.43;;;5.38;;
58310;SDS011;45001;52.218;5.154;2022-11-11T11:05:00;5.90;;;4.95;;
58310;SDS011;45001;52.218;5.154;2022-11-11T11:07:49;6.78;;;5.45;;
58310;SDS011;45001;52.218;5.154;2022-11-11T11:10:20;5.70;;;4.65;;
58310;SDS011;45001;52.218;5.154;2022-11-11T11:12:58;6.75;;;5.03;;
58310;SDS011;45001;52.218;5.154;2022-11-11T11:15:40;6.40;;;4.80;;
58310;SDS011;45001;52.218;5.154;2022-11-11T11:18:13;7.13;;;4.90;;
58310;SDS011;45001;52.218;5.154;2022-11-11T11:20:57;6.40;;;5.43;;
58310;SDS011;45001;52.218;5.154;2022-11-11T11:23:43;7.68;;;5.53;;
58310;SDS011;45001;52.218;5.154;2022-11-11T11:26:10;7.40;;;4.88;;
58310;SDS011;45001;52.218;5.154;2022-11-11T11:31:33;6.53;;;5.63;;
58310;SDS011;45001;52.218;5.154;2022-11-11T11:34:00;6.38;;;5.38;;
58310;SDS011;45001;52.218;5.154;2022-11-11T11:36:26;6.65;;;5.68;;
58310;SDS011;45001;52.218;5.154;2022-11-11T11:38:51;6.97;;;5.40;;
58310;SDS011;45001;52.218;5.154;2022-11-11T11:41:17;7.32;;;5.68;;
58310;SDS011;45001;52.218;5.154;2022-11-11T11:43:59;8.02;;;5.80;;
58310;SDS011;45001;52.218;5.154;2022-11-11T11:46:29;7.28;;;5.55;;
58310;SDS011;45001;52.218;5.154;2022-11-11T11:49:11;6.40;;;5.30;;
58310;SDS011;45001;52.218;5.154;2022-11-11T11:52:04;7.00;;;5.38;;
58310;SDS011;45001;52.218;5.154;2022-11-11T12:00:29;7.57;;;6.40;;
58310;SDS011;45001;52.218;5.154;2022-11-11T12:16:24;6.47;;;5.63;;
58310;SDS011;45001;52.218;5.154;2022-11-11T12:27:31;7.18;;;6.22;;
58310;SDS011;45001;52.218;5.154;2022-11-11T12:30:10;8.63;;;6.38;;
58310;SDS011;45001;52.218;5.154;2022-11-11T12:35:40;8.65;;;5.88;;
58310;SDS011;45001;52.218;5.154;2022-11-11T12:40:59;6.68;;;5.95;;
58310;SDS011;45001;52.218;5.154;2022-11-11T12:51:35;7.53;;;6.40;;
58310;SDS011;45001;52.218;5.154;2022-11-11T13:02:29;5.75;;;5.05;;
58310;SDS011;45001;52.218;5.154;2022-11-11T13:05:18;8.00;;;5.90;;
58310;SDS011;45001;52.218;5.154;2022-11-11T13:07:57;7.63;;;5.43;;
58310;SDS011;45001;52.218;5.154;2022-11-11T13:16:22;6.63;;;5.57;;
58310;SDS011;45001;52.218;5.154;2022-11-11T13:21:45;7.00;;;5.85;;
58310;SDS011;45001;52.218;5.154;2022-11-11T13:24:18;8.68;;;5.30;;
58310;SDS011;45001;52.218;5.154;2022-11-11T13:26:51;7.68;;;5.47;;
58310;SDS011;45001;52.218;5.154;2022-11-11T13:29:35;7.40;;;5.57;;
58310;SDS011;45001;52.218;5.154;2022-11-11T13:32:09;7.57;;;5.35;;
58310;SDS011;45001;52.218;5.154;2022-11-11T13:34:38;7.30;;;5.35;;
58310;SDS011;45001;52.218;5.154;2022-11-11T13:37:05;6.00;;;5.40;;
58310;SDS011;45001;52.218;5.154;2022-11-11T13:39:34;7.50;;;5.68;;
58310;SDS011;45001;52.218;5.154;2022-11-11T13:42:03;6.15;;;5.25;;
58310;SDS011;45001;52.218;5.154;2022-11-11T13:44:31;6.80;;;5.55;;
58310;SDS011;45001;52.218;5.154;2022-11-11T13:47:05;5.88;;;5.07;;
58310;SDS011;45001;52.218;5.154;2022-11-11T13:49:36;8.85;;;5.50;;
58310;SDS011;45001;52.218;5.154;2022-11-11T13:52:17;6.88;;;6.15;;
58310;SDS011;45001;52.218;5.154;2022-11-11T13:54:51;5.10;;;4.40;;
58310;SDS011;45001;52.218;5.154;2022-11-11T13:57:24;6.20;;;5.15;;
58310;SDS011;45001;52.218;5.154;2022-11-11T13:59:57;7.00;;;5.55;;
58310;SDS011;45001;52.218;5.154;2022-11-11T14:02:27;5.95;;;4.82;;
58310;SDS011;45001;52.218;5.154;2022-11-11T14:28:30;6.25;;;4.50;;
58310;SDS011;45001;52.218;5.154;2022-11-11T15:04:57;4.65;;;3.97;;
58310;SDS011;45001;52.218;5.154;2022-11-11T15:10:18;5.82;;;3.67;;
58310;SDS011;45001;52.218;5.154;2022-11-11T15:12:56;4.93;;;3.90;;
58310;SDS011;45001;52.218;5.154;2022-11-11T15:21:35;4.30;;;3.72;;
58310;SDS011;45001;52.218;5.154;2022-11-11T15:24:20;5.30;;;3.90;;
58310;SDS011;45001;52.218;5.154;2022-11-11T15:27:07;5.15;;;3.78;;
58310;SDS011;45001;52.218;5.154;2022-11-11T15:35:18;5.13;;;3.65;;
58310;SDS011;45001;52.218;5.154;2022-11-11T15:37:51;4.53;;;3.63;;
58310;SDS011;45001;52.218;5.154;2022-11-11T15:40:19;5.38;;;3.88;;
58310;SDS011;45001;52.218;5.154;2022-11-11T15:42:56;5.22;;;3.63;;
58310;SDS011;45001;52.218;5.154;2022-11-11T15:45:24;5.97;;;3.80;;
58310;SDS011;45001;52.218;5.154;2022-11-11T15:47:57;4.50;;;3.38;;
58310;SDS011;45001;52.218;5.154;2022-11-11T15:52:52;5.13;;;3.80;;
58310;SDS011;45001;52.218;5.154;2022-11-11T15:55:23;4.47;;;3.97;;
58310;SDS011;45001;52.218;5.154;2022-11-11T15:57:50;5.20;;;3.63;;
58310;SDS011;45001;52.218;5.154;2022-11-11T16:00:29;4.57;;;3.35;;
58310;SDS011;45001;52.218;5.154;2022-11-11T16:02:56;5.15;;;3.63;;
58310;SDS011;45001;52.218;5.154;2022-11-11T16:05:26;4.90;;;3.42;;
58310;SDS011;45001;52.218;5.154;2022-11-11T16:07:53;4.93;;;3.55;;
58310;SDS011;45001;52.218;5.154;2022-11-11T16:10:28;4.57;;;3.58;;
58310;SDS011;45001;52.218;5.154;2022-11-11T16:13:02;4.95;;;3.63;;
58310;SDS011;45001;52.218;5.154;2022-11-11T16:15:42;5.38;;;3.58;;
58310;SDS011;45001;52.218;5.154;2022-11-11T16:18:42;4.50;;;3.33;;
58310;SDS011;45001;52.218;5.154;2022-11-11T16:21:13;7.35;;;4.10;;
58310;SDS011;45001;52.218;5.154;2022-11-11T16:23:43;4.53;;;3.45;;
58310;SDS011;45001;52.218;5.154;2022-11-11T16:26:09;6.22;;;3.53;;
58310;SDS011;45001;52.218;5.154;2022-11-11T16:28:38;5.07;;;3.83;;
58310;SDS011;45001;52.218;5.154;2022-11-11T16:33:58;4.75;;;3.63;;
58310;SDS011;45001;52.218;5.154;2022-11-11T16:36:57;4.72;;;4.10;;
58310;SDS011;45001;52.218;5.154;2022-11-11T16:39:24;5.38;;;4.18;;
58310;SDS011;45001;52.218;5.154;2022-11-11T16:41:51;5.83;;;3.97;;
58310;SDS011;45001;52.218;5.154;2022-11-11T16:44:38;5.68;;;3.72;;
58310;SDS011;45001;52.218;5.154;2022-11-11T16:52:47;4.40;;;3.85;;
58310;SDS011;45001;52.218;5.154;2022-11-11T16:55:36;5.78;;;4.20;;
58310;SDS011;45001;52.218;5.154;2022-11-11T16:58:15;4.97;;;3.70;;
58310;SDS011;45001;52.218;5.154;2022-11-11T17:00:43;5.28;;;4.10;;
58310;SDS011;45001;52.218;5.154;2022-11-11T17:03:10;6.40;;;4.20;;
58310;SDS011;45001;52.218;5.154;2022-11-11T17:11:02;5.88;;;4.57;;
58310;SDS011;45001;52.218;5.154;2022-11-11T17:13:32;7.63;;;4.32;;
58310;SDS011;45001;52.218;5.154;2022-11-11T17:15:59;8.20;;;4.15;;
58310;SDS011;45001;52.218;5.154;2022-11-11T17:18:28;4.88;;;4.18;;
58310;SDS011;45001;52.218;5.154;2022-11-11T17:20:54;4.93;;;3.92;;
58310;SDS011;45001;52.218;5.154;2022-11-11T17:23:20;6.97;;;4.47;;
58310;SDS011;45001;52.218;5.154;2022-11-11T17:25:46;6.30;;;4.65;;
58310;SDS011;45001;52.218;5.154;2022-11-11T17:28:11;7.80;;;5.20;;
58310;SDS011;45001;52.218;5.154;2022-11-11T17:30:36;6.63;;;4.50;;
58310;SDS011;45001;52.218;5.154;2022-11-11T17:33:02;5.82;;;4.10;;
58310;SDS011;45001;52.218;5.154;2022-11-11T17:35:28;6.03;;;3.88;;
58310;SDS011;45001;52.218;5.154;2022-11-11T17:37:53;7.13;;;4.53;;
58310;SDS011;45001;52.218;5.154;2022-11-11T17:40:18;5.28;;;4.10;;
58310;SDS011;45001;52.218;5.154;2022-11-11T17:42:44;7.32;;;4.22;;
58310;SDS011;45001;52.218;5.154;2022-11-11T17:45:09;5.43;;;4.35;;
58310;SDS011;45001;52.218;5.154;2022-11-11T17:47:35;7.68;;;4.28;;
58310;SDS011;45001;52.218;5.154;2022-11-11T17:50:00;6.93;;;4.28;;
58310;SDS011;45001;52.218;5.154;2022-11-11T17:52:25;9.75;;;4.65;;
58310;SDS011;45001;52.218;5.154;2022-11-11T17:54:51;7.28;;;4.20;;
58310;SDS011;45001;52.218;5.154;2022-11-11T17:57:16;6.78;;;4.40;;
58310;SDS011;45001;52.218;5.154;2022-11-11T17:59:41;6.15;;;4.15;;
58310;SDS011;45001;52.218;5.154;2022-11-11T18:02:08;5.57;;;4.18;;